createdAt,value
2022-12-23T00:01:05.872Z,9.97
2022-12-23T00:06:12.260Z,9.91
2022-12-23T00:11:17.891Z,9.86
2022-12-23T00:16:19.802Z,9.79
2022-12-23T00:21:22.979Z,9.75
2022-12-23T00:26:26.583Z,9.75
2022-12-23T00:31:28.296Z,9.72
2022-12-23T00:36:30.665Z,9.71
2022-12-23T00:41:51.510Z,9.73
2022-12-23T00:46:53.139Z,9.73
2022-12-23T00:51:54.822Z,9.72
2022-12-23T00:56:56.449Z,9.73
2022-12-23T01:02:16.955Z,9.75
2022-12-23T01:07:18.703Z,9.78
2022-12-23T01:12:20.444Z,9.79
2022-12-23T01:17:22.296Z,9.71
2022-12-23T01:22:24.071Z,9.64
2022-12-23T01:27:25.743Z,9.65
2022-12-23T01:32:27.394Z,9.68
2022-12-23T01:37:29.068Z,9.70
2022-12-23T01:42:46.703Z,9.68
2022-12-23T01:47:55.734Z,9.66
2022-12-23T01:53:11.828Z,9.69
2022-12-23T01:58:18.001Z,9.68
2022-12-23T02:03:38.450Z,9.67
2022-12-23T02:08:58.984Z,9.68
2022-12-23T02:14:59.508Z,9.70
2022-12-23T02:20:21.457Z,9.73
2022-12-23T02:25:55.406Z,9.76
2022-12-23T02:31:35.783Z,9.77
2022-12-23T02:36:48.402Z,9.76
2022-12-23T02:42:07.250Z,9.79
2022-12-23T02:47:14.451Z,9.80
2022-12-23T02:52:19.508Z,9.79
2022-12-23T02:57:27.004Z,9.82
2022-12-23T03:02:30.796Z,9.87
2022-12-23T03:07:38.500Z,9.91
2022-12-23T03:12:49.055Z,9.90
2022-12-23T03:18:04.765Z,9.90
2022-12-23T03:23:18.696Z,9.93
2022-12-23T03:28:41.711Z,9.93
2022-12-23T03:33:52.577Z,9.96
2022-12-23T03:38:55.921Z,10.00
2022-12-23T03:44:06.278Z,10.03
2022-12-23T03:49:23.515Z,10.09
2022-12-23T03:54:34.309Z,10.15
2022-12-23T03:59:41.013Z,10.21
2022-12-23T04:04:45.616Z,10.28
2022-12-23T04:09:48.297Z,10.33
2022-12-23T04:14:50.160Z,10.42
2022-12-23T04:19:53.141Z,10.47
2022-12-23T04:24:54.708Z,10.53
2022-12-23T04:29:56.452Z,10.54
2022-12-23T04:34:58.139Z,10.60
2022-12-23T04:40:00.166Z,10.64
2022-12-23T04:45:02.791Z,10.69
2022-12-23T04:50:05.051Z,10.74
2022-12-23T04:55:07.193Z,10.80
2022-12-23T05:00:09.615Z,10.82
2022-12-23T05:05:11.292Z,10.87
2022-12-23T05:10:12.967Z,10.92
2022-12-23T05:15:14.694Z,10.95
2022-12-23T05:20:16.455Z,10.96
2022-12-23T05:25:18.294Z,10.98
2022-12-23T05:30:20.120Z,11.03
2022-12-23T05:35:22.952Z,11.04
2022-12-23T05:40:24.995Z,11.05
2022-12-23T05:45:29.929Z,11.08
2022-12-23T05:50:31.584Z,11.08
2022-12-23T05:55:36.970Z,10.99
2022-12-23T06:00:38.688Z,11.00
2022-12-23T06:05:40.559Z,10.99
2022-12-23T06:10:42.235Z,11.05
2022-12-23T06:15:43.950Z,11.09
2022-12-23T06:20:47.477Z,11.11
2022-12-23T06:25:49.363Z,11.07
2022-12-23T06:30:55.733Z,11.03
2022-12-23T06:35:58.103Z,10.99
2022-12-23T06:40:59.734Z,10.99
2022-12-23T06:46:01.652Z,11.01
2022-12-23T06:51:04.056Z,10.99
2022-12-23T06:56:06.242Z,10.99
2022-12-23T07:01:10.029Z,11.01
2022-12-23T07:06:12.082Z,10.97
2022-12-23T07:11:13.740Z,11.02
2022-12-23T07:16:15.638Z,11.05
2022-12-23T07:21:26.482Z,11.09
2022-12-23T07:26:30.428Z,11.13
2022-12-23T07:31:32.106Z,11.14
2022-12-23T07:36:33.769Z,11.16
2022-12-23T07:41:35.432Z,11.18
2022-12-23T07:46:41.635Z,11.22
2022-12-23T07:51:43.414Z,11.25
2022-12-23T07:56:45.236Z,11.26
2022-12-23T08:01:47.127Z,11.28
2022-12-23T08:06:49.037Z,11.30
2022-12-23T08:11:50.911Z,11.32
2022-12-23T08:16:52.643Z,11.34
2022-12-23T08:21:54.498Z,11.37
2022-12-23T08:26:57.164Z,11.38
2022-12-23T08:31:58.962Z,11.40
2022-12-23T08:37:01.242Z,11.43
2022-12-23T08:42:03.134Z,11.48
2022-12-23T08:47:04.840Z,11.52
2022-12-23T08:52:06.576Z,11.53
2022-12-23T08:57:08.363Z,11.55
2022-12-23T09:02:11.787Z,11.54
2022-12-23T09:07:13.841Z,11.58
2022-12-23T09:12:16.120Z,11.63
2022-12-23T09:17:17.865Z,11.71
2022-12-23T09:22:19.540Z,11.79
2022-12-23T09:27:21.497Z,11.84
2022-12-23T09:32:23.158Z,11.90
2022-12-23T09:37:25.361Z,11.95
2022-12-23T09:42:35.758Z,12.01
2022-12-23T09:47:38.276Z,12.07
2022-12-23T09:52:49.792Z,12.13
2022-12-23T09:58:01.278Z,12.18
2022-12-23T10:03:26.089Z,12.22
2022-12-23T10:08:39.742Z,12.26
2022-12-23T10:13:43.768Z,12.32
2022-12-23T10:18:51.465Z,12.34
2022-12-23T10:23:54.385Z,12.36
2022-12-23T10:29:02.625Z,12.36
2022-12-23T10:34:17.594Z,12.37
2022-12-23T10:39:52.856Z,12.40
2022-12-23T10:45:18.343Z,12.43
2022-12-23T10:50:51.139Z,12.44
2022-12-23T10:55:57.404Z,12.47
2022-12-23T11:01:09.926Z,12.51
2022-12-23T11:06:15.863Z,12.55
2022-12-23T11:11:17.544Z,12.56
2022-12-23T11:16:22.381Z,12.62
2022-12-23T11:21:24.455Z,12.64
2022-12-23T11:26:26.203Z,12.65
2022-12-23T11:31:35.113Z,12.64
2022-12-23T11:36:38.175Z,12.61
2022-12-23T11:41:44.020Z,12.58
2022-12-23T11:46:45.913Z,12.54
2022-12-23T11:52:01.725Z,12.50
2022-12-23T11:57:06.141Z,12.48
2022-12-23T12:02:21.991Z,12.46
2022-12-23T12:07:24.182Z,12.46
2022-12-23T12:12:27.466Z,12.47
2022-12-23T12:17:41.731Z,12.49
2022-12-23T12:22:52.531Z,12.50
2022-12-23T12:28:02.652Z,12.52
2022-12-23T12:33:19.179Z,12.52
2022-12-23T12:38:27.587Z,12.53
2022-12-23T12:43:35.137Z,12.51
2022-12-23T12:48:47.180Z,12.52
2022-12-23T12:54:25.130Z,12.51
2022-12-23T12:59:35.712Z,12.51
2022-12-23T13:05:15.300Z,12.52
2022-12-23T13:10:39.194Z,12.55
2022-12-23T13:16:02.323Z,12.60
2022-12-23T13:21:12.206Z,12.63
2022-12-23T13:26:40.319Z,12.58
2022-12-23T13:31:51.242Z,12.57
2022-12-23T13:37:36.349Z,12.54
2022-12-23T13:42:52.401Z,12.51
2022-12-23T13:48:36.932Z,12.51
2022-12-23T13:54:02.296Z,12.51
2022-12-23T13:59:10.706Z,12.51
2022-12-23T14:04:32.420Z,12.49
2022-12-23T14:09:38.534Z,12.48
2022-12-23T14:14:53.020Z,12.45
2022-12-23T14:20:07.932Z,12.44
2022-12-23T14:25:31.183Z,12.41
2022-12-23T14:30:41.252Z,12.39
2022-12-23T14:35:43.242Z,12.40
2022-12-23T14:41:15.574Z,12.40
2022-12-23T14:46:35.886Z,12.39
2022-12-23T14:51:40.142Z,12.37
2022-12-23T14:56:57.299Z,12.37
2022-12-23T15:02:03.111Z,12.36
2022-12-23T15:07:42.100Z,12.37
2022-12-23T15:12:48.003Z,12.35
2022-12-23T15:18:05.656Z,12.34
2022-12-23T15:23:10.647Z,12.33
2022-12-23T15:28:18.849Z,12.34
2022-12-23T15:34:01.661Z,12.34
2022-12-23T15:38:51.355Z,12.33
2022-12-23T15:43:57.607Z,12.35
2022-12-23T15:49:00.389Z,12.37
2022-12-23T15:54:06.439Z,12.37
2022-12-23T15:59:21.028Z,12.38
2022-12-23T16:04:29.148Z,12.39
2022-12-23T16:09:35.174Z,12.40
2022-12-23T16:14:41.904Z,12.40
2022-12-23T16:19:45.426Z,12.39
2022-12-23T16:24:51.665Z,12.40
2022-12-23T16:29:53.425Z,12.48
2022-12-23T16:34:55.185Z,12.51
2022-12-23T16:39:56.819Z,12.53
2022-12-23T16:44:58.627Z,12.54
2022-12-23T16:50:00.400Z,12.56
2022-12-23T16:55:02.048Z,12.59
2022-12-23T17:00:04.148Z,12.62
2022-12-23T17:05:07.747Z,12.66
2022-12-23T17:10:10.536Z,12.68
2022-12-23T17:15:18.004Z,12.72
2022-12-23T17:20:22.117Z,12.74
2022-12-23T17:25:26.692Z,12.76
2022-12-23T17:30:28.589Z,12.79
2022-12-23T17:35:30.929Z,12.88
2022-12-23T17:40:32.644Z,12.91
2022-12-23T17:45:34.517Z,12.99
2022-12-23T17:50:36.724Z,13.00
2022-12-23T17:55:38.732Z,13.02
2022-12-23T18:00:41.086Z,13.02
2022-12-23T18:05:42.729Z,13.00
2022-12-23T18:10:45.579Z,13.00
2022-12-23T18:15:47.724Z,13.01
2022-12-23T18:20:52.814Z,13.03
2022-12-23T18:25:56.058Z,13.04
2022-12-23T18:30:58.201Z,13.04
2022-12-23T18:35:59.969Z,12.99
2022-12-23T18:41:01.887Z,12.97
2022-12-23T18:46:03.782Z,13.01
2022-12-23T18:51:05.522Z,13.03
2022-12-23T18:56:09.879Z,13.03
2022-12-23T19:01:16.173Z,13.05
2022-12-23T19:06:18.021Z,13.06
2022-12-23T19:11:20.768Z,13.09
2022-12-23T19:16:22.627Z,13.13
2022-12-23T19:21:24.489Z,13.13
2022-12-23T19:26:26.252Z,13.13
2022-12-23T19:31:29.760Z,13.13
2022-12-23T19:36:31.923Z,13.13
2022-12-23T19:41:33.570Z,13.11
2022-12-23T19:46:35.371Z,13.09
2022-12-23T19:51:37.099Z,13.02
2022-12-23T19:56:38.961Z,12.72
2022-12-23T20:01:40.688Z,12.36
2022-12-23T20:06:43.415Z,12.28
2022-12-23T20:11:47.112Z,12.21
2022-12-23T20:16:49.319Z,11.95
2022-12-23T20:21:52.029Z,11.78
2022-12-23T20:26:53.723Z,11.76
2022-12-23T20:31:55.383Z,11.74
2022-12-23T20:36:57.027Z,11.78
2022-12-23T20:41:58.724Z,11.78
2022-12-23T20:47:00.534Z,11.78
2022-12-23T20:52:02.251Z,11.80
2022-12-23T20:57:04.086Z,11.81
2022-12-23T21:02:06.176Z,11.90
2022-12-23T21:07:08.400Z,11.92
2022-12-23T21:12:10.476Z,11.89
2022-12-23T21:17:12.142Z,11.88
2022-12-23T21:22:13.826Z,11.84
2022-12-23T21:27:15.794Z,11.87
2022-12-23T21:32:17.474Z,11.89
2022-12-23T21:37:19.078Z,11.91
2022-12-23T21:42:21.130Z,11.88
2022-12-23T21:47:22.802Z,11.86
2022-12-23T21:52:24.485Z,11.88
2022-12-23T21:57:26.193Z,11.91
2022-12-23T22:02:27.891Z,11.92
2022-12-23T22:07:29.616Z,11.92
2022-12-23T22:12:31.229Z,11.91
2022-12-23T22:17:32.889Z,11.90
2022-12-23T22:22:34.693Z,11.93
2022-12-23T22:27:36.568Z,11.99
2022-12-23T22:32:42.414Z,12.04
2022-12-23T22:37:44.458Z,12.08
2022-12-23T22:42:46.287Z,12.14
2022-12-23T22:47:47.998Z,12.20
2022-12-23T22:52:50.148Z,12.26
2022-12-23T22:57:51.916Z,12.26
2022-12-23T23:02:53.661Z,12.24
2022-12-23T23:07:55.324Z,12.23
2022-12-23T23:12:57.002Z,12.26
2022-12-23T23:17:58.660Z,12.25
2022-12-23T23:23:00.403Z,12.25
2022-12-23T23:28:02.115Z,12.25
2022-12-23T23:33:04.447Z,12.18
2022-12-23T23:38:06.179Z,12.18
2022-12-23T23:43:08.322Z,12.16
2022-12-23T23:48:11.914Z,12.17
2022-12-23T23:53:15.032Z,12.17
2022-12-23T23:58:16.694Z,12.17
